CPH weather

Copenhagen Kastrup Airport
Copenhagen, Capital Region, Denmark

Public forecast

Using degrees Celsius for public forecast. Weather courtesy of forecast.io.

METAR (pilot weather report)

Retrieved 2018/06/24 06:20 UTC (0 seconds ago):

EKCH 240620Z 30005KT 270V340 9999 FEW019 SCT023 SCT250 15/10 Q1016 NOSIG

TAF (pilot weather forecast)

Retrieved 2018/06/24 06:26 UTC (0 seconds ago):

TAF EKCH 240514Z 2406/2506 30008KT 9999 SCT040 TEMPO 2410/2415 19010KT